»·PEaware :: N1JG KBLH-KSNA

N1JG :: KBLH-KSNA

FLIGHT INFORMATION

Flight Status: Arrived
Operator: Privately registered:
United States
More flights under this callsign
Pilot: Josh G. (4619)
Aircraft: SOCATA TBM-900
(TBM9)
More flights by this aircraft type
Origin: KBLH Blythe
United States
Destination: KSNA John Wayne-Orange Co
United States
More flights between these airports :: More routes between these airports
Route: +BLH V16 PSP KAYOH7
File this flight plan on PilotEdge
Remarks: Twitch
Altitude:
(Current/Filed)
28,000ft
Speed:
(Current/Filed)
310kts
Departed: 27-Dec-17 10:08 PM
Arrived: 27-Dec-17 10:54 PM
Distance/Time
Traveled:
158nm/0:46
Distance/Time
To Go:
Arrived

Flight Plot

Page will automatically refresh every two minutes.

Flight plan parsing failed; only flown route is shown


Map Options




Map Legend


Flown Route
Filed Route
Departure Airport
Arrival Airport
Navaid (VOR, NDB)
Fix

Horizontal Profiles

Position Reports

Time Latitude Longitude Heading Altitude Ground
Speed
27-Dec-17 22:01 33.614727 -114.712263 3 394ft 0kts
27-Dec-17 22:02 33.614727 -114.712263 3 394ft 0kts
27-Dec-17 22:03 33.614727 -114.712263 3 394ft 0kts
27-Dec-17 22:04 33.614727 -114.712263 3 394ft 0kts
27-Dec-17 22:05 33.614727 -114.712263 3 394ft 0kts
27-Dec-17 22:06 33.614727 -114.712263 3 394ft 0kts
27-Dec-17 22:07 33.614727 -114.712263 3 394ft 0kts
27-Dec-17 22:08 33.614727 -114.712263 3 394ft 0kts
27-Dec-17 22:09 33.614980 -114.712236 11 394ft 5kts
27-Dec-17 22:10 33.615066 -114.707591 92 394ft 22kts
27-Dec-17 22:11 33.615869 -114.706205 6 394ft 0kts
27-Dec-17 22:12 33.615869 -114.706205 6 394ft 0kts
27-Dec-17 22:13 33.616349 -114.706384 330 394ft 11kts
27-Dec-17 22:14 33.614775 -114.735872 260 1239ft 146kts
27-Dec-17 22:15 33.602615 -114.784509 259 3387ft 165kts
27-Dec-17 22:16 33.606437 -114.838418 283 5334ft 174kts
27-Dec-17 22:17 33.617184 -114.898782 284 6951ft 190kts
27-Dec-17 22:18 33.628152 -114.961147 284 8629ft 194kts
27-Dec-17 22:19 33.639833 -115.026846 281 9895ft 212kts
27-Dec-17 22:20 33.651449 -115.093059 280 11665ft 190kts
27-Dec-17 22:21 33.662114 -115.157060 285 12667ft 205kts
27-Dec-17 22:22 33.673560 -115.223934 285 13756ft 205kts
27-Dec-17 22:23 33.684991 -115.291174 284 14700ft 207kts
27-Dec-17 22:24 33.696781 -115.359812 281 15670ft 202kts
27-Dec-17 22:25 33.708343 -115.427939 278 16260ft 213kts
27-Dec-17 22:26 33.720431 -115.500935 279 16351ft 231kts
27-Dec-17 22:27 33.733759 -115.581437 279 16355ft 260kts
27-Dec-17 22:28 33.747952 -115.667410 279 16496ft 263kts
27-Dec-17 22:29 33.760945 -115.747786 281 17594ft 237kts
27-Dec-17 22:30 33.773227 -115.823554 283 18738ft 232kts
27-Dec-17 22:31 33.785767 -115.900572 283 19943ft 236kts
27-Dec-17 22:32 33.799107 -115.982604 283 20166ft 266kts
27-Dec-17 22:33 33.813333 -116.070754 283 20295ft 274kts
27-Dec-17 22:34 33.827924 -116.161740 283 20291ft 279kts
27-Dec-17 22:35 33.838965 -116.254804 279 20211ft 283kts
27-Dec-17 22:36 33.855058 -116.345540 284 19798ft 294kts
27-Dec-17 22:37 33.870899 -116.444613 275 18442ft 306kts
27-Dec-17 22:38 33.875968 -116.545891 274 17439ft 299kts
27-Dec-17 22:39 33.880754 -116.643156 272 16410ft 285kts
27-Dec-17 22:40 33.880909 -116.736806 271 15412ft 288kts
27-Dec-17 22:41 33.886237 -116.833709 269 14428ft 296kts
27-Dec-17 22:42 33.873687 -116.932364 260 13450ft 304kts
27-Dec-17 22:43 33.859782 -117.032580 262 12468ft 301kts
27-Dec-17 22:44 33.846188 -117.130514 262 11466ft 295kts
27-Dec-17 22:45 33.832704 -117.226877 262 10448ft 285kts
27-Dec-17 22:46 33.819608 -117.319458 262 9442ft 280kts
27-Dec-17 22:47 33.806600 -117.410735 262 8351ft 281kts
27-Dec-17 22:48 33.794308 -117.495797 261 7080ft 255kts
27-Dec-17 22:49 33.787506 -117.575892 271 5931ft 237kts
27-Dec-17 22:50 33.792872 -117.650684 292 5957ft 230kts
27-Dec-17 22:51 33.815316 -117.718880 292 5277ft 213kts
27-Dec-17 22:52 33.835191 -117.779569 292 4306ft 183kts
27-Dec-17 22:53 33.868149 -117.788851 75 3379ft 174kts
27-Dec-17 22:54 33.833784 -117.768247 203 2969ft 179kts
27-Dec-17 22:55 33.791060 -117.795539 208 2601ft 148kts
27-Dec-17 22:56 33.755706 -117.818092 207 1715ft 130kts
27-Dec-17 22:57 33.728087 -117.835930 210 1157ft 99kts
27-Dec-17 22:58 33.704083 -117.851479 207 572ft 97kts
27-Dec-17 22:59 33.683025 -117.864155 207 93ft 83kts
27-Dec-17 23:00 33.674222 -117.870826 299 59ft 3kts
27-Dec-17 23:01 33.673729 -117.872265 115 59ft 0kts
27-Dec-17 23:02 33.673729 -117.872265 115 59ft 0kts
27-Dec-17 23:03 33.673729 -117.872265 115 59ft 0kts
27-Dec-17 23:04 33.673729 -117.872265 115 59ft 0kts
27-Dec-17 23:05 33.673729 -117.872265 115 59ft 0kts
27-Dec-17 23:06 33.673729 -117.872265 115 59ft 0kts
27-Dec-17 23:07 33.673729 -117.872265 115 59ft 0kts
27-Dec-17 23:08 33.673729 -117.872265 115 59ft 0kts
27-Dec-17 23:09 33.673729 -117.872265 115 59ft 0kts
27-Dec-17 23:10 33.673729 -117.872265 115 59ft 0kts
27-Dec-17 23:11 33.673729 -117.872265 115 59ft 0kts
27-Dec-17 23:12 33.673729 -117.872265 115 59ft 0kts
27-Dec-17 23:13 33.673729 -117.872265 115 59ft 0kts
27-Dec-17 23:14 33.673729 -117.872265 115 59ft 0kts
27-Dec-17 23:15 33.673729 -117.872265 115 59ft 0kts

Navigation Log

Ident Type
Flight plan parsing failed, navigation log unavailable